• Join FlightAware (Why Join?)
  • Login
  • US Flag 
11:03PM EST


 

Airport Tracker/Info


-or-


 

Live Flight TrackerFlight Track Log ✈ AWE3874 ✈ 12-Oct-2013 ✈ KDCA - KSRQ

Flight Track Log - Related Links

Times and Time Zones

All times are in EDT time to prevent confusion due to time zone crossing. See the AWE3874 flight status page for this flight to view local times or setup timezone preferences in your user account.

Time Position Orientation Groundspeed Altitude Reporting Facility
EDT Latitude Longitude Course Direction KTS MPH feet Rate Location/Type
09:54AM 38.8775 -77.0528 251° West 184 212 1,200  Level Washington Center
09:55AM 38.9164 -77.1097 311° West 233 268 3,300 2,520 Climbing Washington Center
09:55AM 38.9500 -77.1333 331° Northwest 234 269 5,200 2,160 Climbing Potomac TRACON
09:56AM 38.5662 -77.1967 225° Southwest  Level Estimated
09:56AM 39.0000 -77.2000 314° West 283 326 6,700  Level Potomac TRACON
09:57AM 38.4710 -77.2494 201° Southwest  Level Estimated
09:57AM 38.9500 -77.2833 232° Southwest 301 346 9,000  Level Potomac TRACON
09:58AM 38.3757 -77.3020 228° Southwest  Level Estimated
09:58AM 38.8833 -77.3167 201° Southwest 317 365 11,400  Level Potomac TRACON
09:59AM 38.3420 -77.4273 251° West  Level FlightAware Approximate
09:59AM 38.8000 -77.3667 205° Southwest 328 377 12,800  Level Potomac TRACON
10:00AM 38.7167 -77.4000 197° South 354 407 13,800 960 Climbing Potomac TRACON
10:02AM 38.5797 -77.4747 203° Southwest 366 421 15,300 1,080 Climbing Washington Center
10:03AM 38.4808 -77.5253 202° Southwest 378 435 16,600 1,260 Climbing Washington Center
10:04AM 38.3839 -77.5836 205° Southwest 378 435 17,800 960 Climbing Washington Center
10:05AM 38.3133 -77.6956 231° Southwest 383 441 18,600 900 Climbing Washington Center
10:06AM 38.2406 -77.8044 230° Southwest 394 453 19,700 900 Climbing Washington Center
10:07AM 38.1694 -77.9158 231° Southwest 409 471 20,500 840 Climbing Washington Center
10:08AM 38.0964 -78.0272 230° Southwest 415 478 21,400 840 Climbing Washington Center
10:09AM 38.0189 -78.1406 229° Southwest 415 478 22,200 720 Climbing Washington Center
10:10AM 37.9250 -78.2428 221° Southwest 408 470 22,900 600 Climbing Washington Center
10:11AM 37.8311 -78.3342 218° Southwest 421 484 23,400 540 Climbing Washington Center
10:12AM 37.7439 -78.4150 216° Southwest 433 498 24,100 600 Climbing Washington Center
10:13AM 37.6500 -78.5033 217° Southwest 438 504 24,700 540 Climbing Washington Center
10:14AM 37.5494 -78.5964 216° Southwest 443 510 25,200 720 Climbing Washington Center
10:15AM 37.4533 -78.6867 217° Southwest 443 510 26,200 720 Climbing Washington Center
10:16AM 37.3572 -78.7742 216° Southwest 443 510 26,700 480 Climbing Washington Center
10:17AM 37.2503 -78.8742 217° Southwest 443 510 27,200 420 Climbing Washington Center
10:18AM 37.1497 -78.9664 216° Southwest 443 510 27,600 480 Climbing Washington Center
10:19AM 37.0531 -79.0583 217° Southwest 443 510 28,200 600 Climbing Washington Center
10:20AM 36.9525 -79.1475 215° Southwest 443 510 28,900 660 Climbing Washington Center
10:21AM 36.8578 -79.2392 218° Southwest 443 510 29,600 540 Climbing Washington Center
10:22AM 36.7700 -79.3153 215° Southwest 438 504 30,100 480 Climbing Washington Center
10:23AM 36.6733 -79.4064 217° Southwest 438 504 30,600 540 Climbing Washington Center
10:24AM 36.5808 -79.4925 217° Southwest 438 504 31,200 600 Climbing Washington Center
10:25AM 36.4861 -79.5756 215° Southwest 438 504 31,800 180 Climbing Washington Center
10:27AM 36.2494 -79.7881 216° Southwest 431 496 32,000  Climbing Atlanta Center
10:28AM 36.1544 -79.8728 216° Southwest 431 496 32,000  Level Atlanta Center
10:29AM 36.0633 -79.9572 217° Southwest 425 489 32,000  Level Atlanta Center
10:30AM 35.9592 -80.0189 206° Southwest 420 483 32,000  Level Atlanta Center
10:31AM 35.8606 -80.0672 202° Southwest 420 483 32,000  Level Atlanta Center
10:32AM 35.7539 -80.1211 202° Southwest 426 490 32,000  Level Atlanta Center
10:33AM 35.6328 -80.1831 203° Southwest 426 490 32,000  Level Atlanta Center
10:34AM 35.5281 -80.2367 203° Southwest 426 490 32,000  Level Atlanta Center
10:35AM 35.4211 -80.2897 202° Southwest 421 484 32,000  Level Atlanta Center
10:36AM 35.3122 -80.3458 203° Southwest 421 484 32,000  Level Atlanta Center
10:39AM 35.1946 -80.4016 201° Southwest  Level FlightAware Approximate
10:39AM 34.9678 -80.5164 201° Southwest 421 484 32,000  Level Jacksonville Center
10:40AM 34.8561 -80.5703 202° Southwest 427 491 32,000  Level Jacksonville Center
10:41AM 34.7650 -80.6181 203° Southwest 427 491 32,000  Level Jacksonville Center
10:42AM 34.6533 -80.6717 202° Southwest 422 486 32,000  Level Jacksonville Center
10:43AM 34.5378 -80.7300 203° Southwest 444 511 32,000  Level Jacksonville Center
10:44AM 34.4281 -80.7881 204° Southwest 439 505 32,000  Level Jacksonville Center
10:45AM 34.3225 -80.8358 200° South 424 488 32,000  Level Jacksonville Center
10:46AM 34.2169 -80.8861 202° Southwest 419 482 32,000  Level Jacksonville Center
10:47AM 34.1092 -80.9364 201° Southwest 419 482 32,000  Level Jacksonville Center
10:48AM 33.9994 -80.9914 203° Southwest 419 482 32,000  Level Jacksonville Center
10:49AM 33.8894 -81.0386 200° South 424 488 32,000  Level Jacksonville Center
10:50AM 33.7797 -81.0911 202° Southwest 424 488 32,000  Level Jacksonville Center
10:51AM 33.6597 -81.1558 204° Southwest 436 502 32,000  Level Jacksonville Center
10:52AM 33.5478 -81.2128 203° Southwest 436 502 32,000  Level Jacksonville Center
10:53AM 33.4397 -81.2647 202° Southwest 436 502 32,000  Level Jacksonville Center
10:54AM 33.3278 -81.3164 201° Southwest 436 502 32,000  Level Jacksonville Center
10:55AM 33.2178 -81.3731 203° Southwest 431 496 32,000  Level Jacksonville Center
10:56AM 33.1078 -81.4244 201° Southwest 431 496 32,000  Level Jacksonville Center
10:57AM 32.9936 -81.4708 199° South 431 496 32,000  Level Jacksonville Center
10:58AM 32.8728 -81.5025 192° South 436 502 32,000  Level Jacksonville Center
10:59AM 32.7542 -81.5339 193° South 441 507 32,000  Level Jacksonville Center
11:00AM 32.6356 -81.5653 193° South 433 498 32,000  Level Jacksonville Center
11:01AM 32.5272 -81.5917 192° South 438 504 32,000  Level Jacksonville Center
11:02AM 32.3939 -81.6256 192° South 438 504 32,000  Level Jacksonville Center
11:03AM 32.2858 -81.6517 192° South 445 512 32,000  Level Jacksonville Center
11:04AM 32.1503 -81.6828 191° South 445 512 32,000  Level Jacksonville Center
11:05AM 32.0275 -81.7139 192° South 444 511 32,000  Level Jacksonville Center
11:06AM 31.9169 -81.7397 191° South 449 517 32,000  Level Jacksonville Center
11:07AM 31.7836 -81.7733 192° South 449 517 32,000  Level Jacksonville Center
11:08AM 31.6711 -81.7989 191° South 449 517 32,000  Level Jacksonville Center
11:09AM 31.5378 -81.8322 192° South 449 517 32,000  Level Jacksonville Center
11:10AM 31.4169 -81.8603 191° South 449 517 32,000  Level Jacksonville Center
11:11AM 31.2983 -81.8933 193° South 449 517 32,000  Level Jacksonville Center
11:12AM 31.1753 -81.9239 192° South 449 517 32,000  Level Jacksonville Center
11:13AM 31.0544 -81.9542 192° South 454 522 32,000  Level Jacksonville Center
11:14AM 30.9314 -81.9819 191° South 449 517 32,000  Level Jacksonville Center
11:15AM 30.8125 -82.0097 191° South 444 511 32,000  Level Jacksonville Center
11:16AM 30.6939 -82.0397 192° South 444 511 32,000  Level Jacksonville Center
11:17AM 30.5708 -82.0675 191° South 444 511 32,000  Level Jacksonville Center
11:18AM 30.4539 -82.0925 190° South 444 511 32,000  Level Jacksonville Center
11:19AM 30.3311 -82.1200 191° South 452 520 32,000  Level Jacksonville Center
11:20AM 30.2078 -82.1356 186° South 444 511 32,000 -540 Level Jacksonville Center
11:21AM 30.0825 -82.1317 178° South 450 518 31,000 -1,200 Descending Jacksonville Center
11:22AM 29.9742 -82.1350 182° South 444 511 29,700 -1,440 Descending Jacksonville Center
11:23AM 29.8592 -82.1333 179° South 427 491 28,200 -1,560 Descending Jacksonville Center
11:24AM 29.7361 -82.1294 178° South 419 482 26,600 -1,140 Descending Jacksonville Center
11:25AM 29.6169 -82.1281 179° South 419 482 26,000 -300 Descending Jacksonville Center
11:26AM 29.4958 -82.1267 179° South 429 494 26,000 -300 Level Jacksonville Center
11:27AM 29.3686 -82.1253 179° South 443 510 25,500 -900 Descending Jacksonville Center
11:28AM 29.2411 -82.1239 179° South 455 524 24,300 -1,260 Descending Jacksonville Center
11:29AM 29.1161 -82.1225 179° South 455 524 23,100 -1,320 Descending Jacksonville Center
11:30AM 28.9992 -82.1211 179° South 448 516 21,700 -2,100 Descending Jacksonville Center
11:31AM 28.8947 -82.1194 179° South 434 499 18,900 -3,060 Descending Jacksonville Center
11:33AM 28.7167 -82.1167 179° South 358 412 14,000 -2,580 Descending Tampa TRACON
11:34AM 28.6167 -82.1167 180° South 323 372 12,300 -1,380 Descending Tampa TRACON
11:35AM 28.5500 -82.1000 168° South 327 376 11,400 -720 Descending Tampa TRACON
11:36AM 28.4500 -82.0833 172° South 323 372 11,000 -240 Descending Tampa TRACON
11:37AM 28.3667 -82.0667 170° South 309 356 11,000  Level Tampa TRACON
11:38AM 28.2833 -82.0667 180° South 313 360 11,000  Level Tampa TRACON
11:39AM 28.2000 -82.0500 170° South 311 358 11,000  Level Tampa TRACON
11:40AM 28.1000 -82.0333 172° South 311 358 11,000 -420 Level Tampa TRACON
11:41AM 28.0333 -82.0167 168° South 296 341 10,200 -1,260 Descending Tampa TRACON
11:42AM 27.9500 -82.0500 199° South 281 323 8,500 -1,440 Descending Tampa TRACON
11:43AM 27.9000 -82.1167 230° Southwest 274 315 7,300 -1,260 Descending Tampa TRACON
11:44AM 27.8333 -82.1667 214° Southwest 270 311 6,000 -660 Descending Tampa TRACON
11:45AM 27.7833 -82.2167 222° Southwest 265 305 6,000  Level Tampa TRACON
11:46AM 27.7167 -82.2667 214° Southwest 274 315 6,000  Level Tampa TRACON
11:47AM 27.6500 -82.3000 204° Southwest 273 314 6,000 -720 Level Tampa TRACON
11:48AM 27.5833 -82.3333 204° Southwest 255 293 4,600 -1,500 Descending Tampa TRACON
11:49AM 27.5167 -82.3667 204° Southwest 242 278 3,100 -1,320 Descending Tampa TRACON
11:50AM 27.4667 -82.3833 196° South 239 275 2,000 -660 Descending Tampa TRACON
11:51AM 27.4000 -82.4167 204° Southwest 216 249 1,800 -120 Descending Tampa TRACON
11:52AM 27.3667 -82.4500 222° Southwest 172 198 1,800 -300 Level Tampa TRACON
11:53AM 27.3500 -82.5000 249° West 162 186 1,300 -720 Descending Tampa TRACON
11:54AM 27.3833 -82.5333 318° Northwest 143 165 400 -900 Descending Tampa TRACON